createdAt,value
2017-08-12T00:00:18.043Z,39.23
2017-08-12T00:02:45.067Z,38.50
2017-08-12T00:05:12.593Z,37.97
2017-08-12T00:07:41.192Z,39.50
2017-08-12T00:10:07.917Z,38.67
2017-08-12T00:12:34.320Z,35.83
2017-08-12T00:15:00.582Z,35.23
2017-08-12T00:17:26.869Z,32.40
2017-08-12T00:19:53.140Z,30.60
2017-08-12T00:22:20.353Z,28.20
2017-08-12T00:27:19.915Z,29.60
2017-08-12T00:29:46.291Z,27.90
2017-08-12T00:35:05.101Z,31.37
2017-08-12T00:37:31.303Z,29.50
2017-08-12T00:39:57.941Z,31.50
2017-08-12T00:42:39.428Z,33.27
2017-08-12T00:45:05.641Z,33.70
2017-08-12T00:47:31.911Z,34.27
2017-08-12T00:49:58.847Z,33.70
2017-08-12T00:52:25.092Z,34.20
2017-08-12T00:54:51.343Z,35.97
2017-08-12T00:57:43.953Z,34.43
2017-08-12T01:00:10.192Z,34.13
2017-08-12T01:02:36.363Z,33.83
2017-08-12T01:05:11.777Z,33.27
2017-08-12T01:07:41.799Z,35.77
2017-08-12T01:10:08.169Z,34.70
2017-08-12T01:12:34.352Z,30.87
2017-08-12T01:15:00.680Z,31.57
2017-08-12T01:17:27.004Z,35.17
2017-08-12T01:19:53.195Z,32.73
2017-08-12T01:22:19.486Z,35.67
2017-08-12T01:24:45.713Z,32.30
2017-08-12T01:27:11.892Z,29.40
2017-08-12T01:29:38.032Z,26.00
2017-08-12T01:32:04.199Z,25.60
2017-08-12T01:34:30.495Z,26.47
2017-08-12T01:36:56.681Z,27.03
2017-08-12T01:39:22.859Z,25.27
2017-08-12T01:41:49.188Z,28.67
2017-08-12T01:44:15.608Z,27.20
2017-08-12T01:46:55.627Z,26.30
2017-08-12T01:49:21.870Z,29.83
2017-08-12T01:51:48.055Z,29.03
2017-08-12T01:54:14.228Z,27.80
2017-08-12T01:56:40.486Z,30.33
2017-08-12T01:59:06.669Z,31.83
2017-08-12T02:01:32.926Z,30.73
2017-08-12T02:03:59.110Z,31.47
2017-08-12T02:06:25.292Z,32.80
2017-08-12T02:08:51.564Z,32.70
2017-08-12T02:11:17.695Z,34.40
2017-08-12T02:13:47.015Z,33.73
2017-08-12T02:16:18.246Z,33.57
2017-08-12T02:18:44.379Z,33.60
2017-08-12T02:21:10.571Z,31.20
2017-08-12T02:23:38.071Z,31.30
2017-08-12T02:26:10.492Z,31.57
2017-08-12T02:28:41.513Z,30.97
2017-08-12T02:31:07.653Z,32.80
2017-08-12T02:33:33.811Z,32.67
2017-08-12T02:35:59.992Z,32.73
2017-08-12T02:38:26.135Z,32.10
2017-08-12T02:40:52.262Z,29.90
2017-08-12T02:43:18.407Z,29.90
2017-08-12T02:45:44.542Z,30.67
2017-08-12T02:48:10.687Z,29.73
2017-08-12T02:50:36.851Z,30.00
2017-08-12T02:53:03.211Z,31.10
2017-08-12T02:55:29.655Z,30.20
2017-08-12T02:57:55.867Z,29.67
2017-08-12T03:00:22.047Z,30.83
2017-08-12T03:02:51.954Z,30.60
2017-08-12T03:05:18.859Z,31.73
2017-08-12T03:07:46.547Z,29.70
2017-08-12T03:10:12.831Z,32.47
2017-08-12T03:12:38.964Z,30.50
2017-08-12T03:15:05.115Z,30.10
2017-08-12T03:17:31.431Z,31.67
2017-08-12T03:19:57.590Z,31.47
2017-08-12T03:22:23.775Z,30.97
2017-08-12T03:24:50.136Z,32.37
2017-08-12T03:27:16.505Z,32.93
2017-08-12T03:29:42.727Z,32.70
2017-08-12T03:32:08.862Z,30.40
2017-08-12T03:34:36.108Z,30.33
2017-08-12T03:37:02.572Z,30.40
2017-08-12T03:39:28.995Z,33.07
2017-08-12T03:41:55.160Z,34.27
2017-08-12T03:44:21.424Z,31.93
2017-08-12T03:46:49.540Z,29.53
2017-08-12T03:49:15.865Z,30.90
2017-08-12T03:51:42.044Z,30.87
2017-08-12T03:54:08.174Z,30.90
2017-08-12T03:56:35.684Z,29.30
2017-08-12T04:01:56.315Z,23.93
2017-08-12T04:04:24.201Z,20.23
2017-08-12T04:06:50.520Z,22.73
2017-08-12T04:09:17.703Z,21.63
2017-08-12T04:11:44.216Z,24.20
2017-08-12T04:14:10.679Z,21.17
2017-08-12T04:16:36.975Z,21.10
2017-08-12T04:19:03.198Z,20.50
2017-08-12T04:21:29.388Z,19.87
2017-08-12T04:23:55.687Z,22.37
2017-08-12T04:26:21.976Z,19.13
2017-08-12T04:28:48.153Z,19.60
2017-08-12T04:31:38.538Z,21.17
2017-08-12T04:34:05.028Z,22.00
2017-08-12T04:36:32.556Z,21.10
2017-08-12T04:39:12.142Z,20.97
2017-08-12T04:41:38.984Z,18.77
2017-08-12T04:44:05.290Z,19.90
2017-08-12T04:46:31.847Z,19.80
2017-08-12T04:49:13.156Z,19.53
2017-08-12T04:54:14.525Z,19.30
2017-08-12T04:56:40.692Z,19.23
2017-08-12T04:59:10.045Z,18.80
2017-08-12T05:01:36.565Z,17.97
2017-08-12T05:04:02.759Z,18.60
2017-08-12T05:06:29.035Z,17.50
2017-08-12T05:08:55.460Z,18.80
2017-08-12T05:11:21.651Z,20.43
2017-08-12T05:13:47.807Z,21.13
2017-08-12T05:16:14.217Z,18.60
2017-08-12T05:18:40.400Z,19.33
2017-08-12T05:21:06.596Z,17.10
2017-08-12T05:23:32.729Z,18.60
2017-08-12T05:25:58.999Z,17.53
2017-08-12T05:28:25.138Z,19.60
2017-08-12T05:30:52.362Z,17.57
2017-08-12T05:33:18.588Z,19.20
2017-08-12T05:35:44.847Z,18.87
2017-08-12T05:38:11.019Z,18.33
2017-08-12T05:40:37.167Z,17.07
2017-08-12T05:43:03.349Z,16.50
2017-08-12T05:45:29.486Z,14.67
2017-08-12T05:47:55.722Z,15.90
2017-08-12T05:50:21.871Z,16.50
2017-08-12T05:52:48.074Z,14.50
2017-08-12T05:55:14.212Z,15.40
2017-08-12T05:57:40.401Z,13.20
2017-08-12T06:00:06.534Z,15.57
2017-08-12T06:02:32.733Z,14.00
2017-08-12T06:04:58.903Z,12.37
2017-08-12T06:07:25.038Z,13.43
2017-08-12T06:09:51.159Z,12.73
2017-08-12T06:12:17.297Z,13.17
2017-08-12T06:14:43.448Z,13.17
2017-08-12T06:17:09.607Z,13.77
2017-08-12T06:19:35.783Z,15.20
2017-08-12T06:22:01.952Z,14.37
2017-08-12T06:24:28.109Z,15.60
2017-08-12T06:26:54.322Z,15.70
2017-08-12T06:29:20.468Z,15.93
2017-08-12T06:31:46.616Z,15.60
2017-08-12T06:34:12.760Z,19.47
2017-08-12T06:36:39.022Z,20.50
2017-08-12T06:39:05.316Z,19.60
2017-08-12T06:41:31.516Z,22.27
2017-08-12T06:43:57.731Z,20.47
2017-08-12T06:46:23.891Z,22.30
2017-08-12T06:48:50.180Z,25.00
2017-08-12T06:51:16.328Z,26.30
2017-08-12T06:53:42.455Z,27.40
2017-08-12T06:56:08.662Z,28.93
2017-08-12T06:58:34.815Z,31.00
2017-08-12T07:01:01.001Z,28.67
2017-08-12T07:03:27.187Z,31.27
2017-08-12T07:05:53.437Z,32.93
2017-08-12T07:08:19.579Z,33.40
2017-08-12T07:10:45.736Z,32.67
2017-08-12T07:13:11.895Z,32.30
2017-08-12T07:15:38.114Z,33.93
2017-08-12T07:18:04.271Z,34.23
2017-08-12T07:20:30.736Z,34.80
2017-08-12T07:22:56.943Z,33.33
2017-08-12T07:25:23.107Z,32.73
2017-08-12T07:27:49.263Z,35.10
2017-08-12T07:30:15.451Z,35.70
2017-08-12T07:32:41.623Z,34.83
2017-08-12T07:35:07.826Z,33.70
2017-08-12T07:37:34.056Z,35.77
2017-08-12T07:40:00.203Z,31.53
2017-08-12T07:42:26.371Z,30.23
2017-08-12T07:44:52.516Z,27.60
2017-08-12T07:47:18.705Z,29.50
2017-08-12T07:49:45.202Z,34.60
2017-08-12T07:52:11.534Z,26.63
2017-08-12T07:54:37.679Z,27.33
2017-08-12T07:57:03.939Z,28.63
2017-08-12T07:59:30.086Z,25.47
2017-08-12T08:01:56.259Z,21.27
2017-08-12T08:04:22.405Z,23.90
2017-08-12T08:06:48.609Z,23.27
2017-08-12T08:09:14.771Z,18.37
2017-08-12T08:11:40.971Z,17.00
2017-08-12T08:14:07.159Z,18.13
2017-08-12T08:16:33.332Z,14.70
2017-08-12T08:19:00.033Z,13.37
2017-08-12T08:21:26.298Z,12.97
2017-08-12T08:23:52.515Z,11.10
2017-08-12T08:26:18.830Z,8.00
2017-08-12T08:28:45.061Z,10.23
2017-08-12T08:31:11.235Z,8.50
2017-08-12T08:33:37.438Z,7.87
2017-08-12T08:36:03.919Z,8.00
2017-08-12T08:38:30.230Z,8.10
2017-08-12T08:40:56.396Z,7.50
2017-08-12T08:43:22.559Z,6.80
2017-08-12T08:45:48.740Z,7.00
2017-08-12T08:48:15.024Z,7.20
2017-08-12T08:50:41.293Z,7.10
2017-08-12T08:53:07.479Z,13.00
2017-08-12T08:55:33.659Z,9.30
2017-08-12T08:57:59.928Z,6.70
2017-08-12T09:00:26.120Z,5.97
2017-08-12T09:02:53.286Z,7.10
2017-08-12T09:05:19.477Z,5.93
2017-08-12T09:07:45.660Z,6.70
2017-08-12T09:10:11.886Z,6.50
2017-08-12T09:12:38.160Z,6.20
2017-08-12T09:15:04.401Z,6.50
2017-08-12T09:17:30.587Z,6.07
2017-08-12T09:19:56.752Z,5.13
2017-08-12T09:22:22.886Z,5.83
2017-08-12T09:24:49.602Z,5.60
2017-08-12T09:27:15.770Z,5.27
2017-08-12T09:29:41.915Z,4.97
2017-08-12T09:32:08.104Z,5.10
2017-08-12T09:34:36.101Z,4.30
2017-08-12T09:37:02.259Z,5.37
2017-08-12T09:39:28.556Z,4.57
2017-08-12T09:41:55.248Z,4.70
2017-08-12T09:44:21.468Z,4.77
2017-08-12T09:46:47.656Z,4.73
2017-08-12T09:49:13.799Z,5.13
2017-08-12T09:51:39.967Z,5.27
2017-08-12T09:54:07.823Z,8.77
2017-08-12T09:56:34.139Z,7.97
2017-08-12T09:59:00.642Z,10.47
2017-08-12T10:01:27.124Z,9.00
2017-08-12T10:03:53.423Z,10.97
2017-08-12T10:06:19.642Z,8.77
2017-08-12T10:08:45.800Z,7.80
2017-08-12T10:11:12.114Z,5.93
2017-08-12T10:13:38.308Z,6.53
2017-08-12T10:16:04.543Z,5.50
2017-08-12T10:18:30.777Z,4.30
2017-08-12T10:20:56.936Z,4.50
2017-08-12T10:23:23.118Z,4.50
2017-08-12T10:25:49.291Z,4.87
2017-08-12T10:28:15.535Z,5.37
2017-08-12T10:30:41.772Z,5.70
2017-08-12T10:33:07.939Z,4.80
2017-08-12T10:35:34.128Z,6.10
2017-08-12T10:38:00.309Z,5.40
2017-08-12T10:40:26.537Z,6.00
2017-08-12T10:42:52.747Z,5.93
2017-08-12T10:45:18.955Z,6.80
2017-08-12T10:47:45.110Z,6.10
2017-08-12T10:50:11.271Z,5.83
2017-08-12T10:52:37.428Z,6.37
2017-08-12T10:55:03.620Z,6.93
2017-08-12T10:57:29.803Z,6.10
2017-08-12T10:59:56.039Z,6.33
2017-08-12T11:02:22.192Z,7.50
2017-08-12T11:04:48.379Z,8.60
2017-08-12T11:07:14.535Z,6.50
2017-08-12T11:09:40.715Z,6.13
2017-08-12T11:12:06.969Z,5.93
2017-08-12T11:14:33.131Z,6.80
2017-08-12T11:16:59.307Z,6.00
2017-08-12T11:19:25.483Z,5.23
2017-08-12T11:21:51.726Z,5.60
2017-08-12T11:24:17.867Z,5.90
2017-08-12T11:26:44.116Z,5.20
2017-08-12T11:29:10.302Z,6.20
2017-08-12T11:31:36.447Z,5.40
2017-08-12T11:34:02.585Z,4.90
2017-08-12T11:36:28.823Z,4.40
2017-08-12T11:38:54.997Z,5.10
2017-08-12T11:41:21.311Z,16.37
2017-08-12T11:43:47.518Z,31.87
2017-08-12T11:46:13.654Z,48.93
2017-08-12T11:48:39.829Z,3.80
2017-08-12T11:51:05.972Z,4.20
2017-08-12T11:53:32.118Z,4.47
2017-08-12T11:55:58.291Z,4.67
2017-08-12T11:58:24.442Z,4.77
2017-08-12T12:03:16.810Z,5.30
2017-08-12T12:05:42.943Z,5.40
2017-08-12T12:08:09.128Z,6.03
2017-08-12T12:10:35.306Z,10.53
2017-08-12T12:13:01.583Z,7.30
2017-08-12T12:15:27.798Z,6.60
2017-08-12T12:17:53.931Z,10.17
2017-08-12T12:20:20.118Z,7.60
2017-08-12T12:22:46.273Z,7.53
2017-08-12T12:25:12.435Z,6.90
2017-08-12T12:27:38.582Z,7.90
2017-08-12T12:30:04.755Z,7.93
2017-08-12T12:32:31.718Z,7.47
2017-08-12T12:34:57.884Z,6.97
2017-08-12T12:37:24.028Z,7.77
2017-08-12T12:39:50.208Z,10.40
2017-08-12T12:42:16.376Z,31.03
2017-08-12T12:44:42.534Z,7.57
2017-08-12T12:47:08.727Z,8.40
2017-08-12T12:49:34.881Z,7.10
2017-08-12T12:52:01.080Z,7.93
2017-08-12T12:54:27.224Z,6.77
2017-08-12T12:56:53.391Z,6.90
2017-08-12T12:59:19.535Z,26.87
2017-08-12T13:01:45.695Z,6.03
2017-08-12T13:04:12.021Z,6.00
2017-08-12T13:06:38.288Z,5.40
2017-08-12T13:09:04.469Z,5.47
2017-08-12T13:11:30.632Z,6.03
2017-08-12T13:13:56.772Z,5.57
2017-08-12T13:16:22.933Z,5.70
2017-08-12T13:18:49.079Z,5.40
2017-08-12T13:21:15.255Z,4.80
2017-08-12T13:23:41.408Z,5.87
2017-08-12T13:26:07.539Z,4.97
2017-08-12T13:28:33.687Z,4.40
2017-08-12T13:30:59.831Z,4.87
2017-08-12T13:33:26.017Z,4.73
2017-08-12T13:35:52.160Z,4.20
2017-08-12T13:38:18.333Z,4.57
2017-08-12T13:40:44.483Z,4.47
2017-08-12T13:43:10.636Z,4.13
2017-08-12T13:45:36.776Z,6.03
2017-08-12T13:48:02.942Z,5.10
2017-08-12T13:50:29.086Z,4.40
2017-08-12T13:52:55.226Z,3.80
2017-08-12T13:55:21.371Z,4.07
2017-08-12T13:57:47.551Z,4.43
2017-08-12T14:00:13.676Z,5.20
2017-08-12T14:02:39.847Z,4.50
2017-08-12T14:05:06.035Z,4.90
2017-08-12T14:07:32.211Z,6.30
2017-08-12T14:09:58.410Z,5.03
2017-08-12T14:12:24.554Z,5.30
2017-08-12T14:14:50.724Z,5.33
2017-08-12T14:17:16.936Z,4.90
2017-08-12T14:19:43.096Z,5.40
2017-08-12T14:22:09.332Z,4.43
2017-08-12T14:24:35.554Z,5.17
2017-08-12T14:27:01.744Z,4.80
2017-08-12T14:29:27.871Z,5.33
2017-08-12T14:31:54.141Z,5.10
2017-08-12T14:34:20.467Z,5.20
2017-08-12T14:36:46.615Z,5.13
2017-08-12T14:39:12.749Z,5.40
2017-08-12T14:41:38.975Z,5.47
2017-08-12T14:44:05.251Z,5.63
2017-08-12T14:46:31.439Z,4.93
2017-08-12T14:48:57.639Z,5.90
2017-08-12T14:51:23.795Z,5.70
2017-08-12T14:53:49.935Z,5.97
2017-08-12T14:56:16.120Z,5.03
2017-08-12T14:58:42.463Z,4.53
2017-08-12T15:01:08.624Z,6.13
2017-08-12T15:03:34.765Z,5.10
2017-08-12T15:06:00.951Z,5.33
2017-08-12T15:08:27.104Z,5.23
2017-08-12T15:10:53.307Z,5.87
2017-08-12T15:13:19.558Z,5.70
2017-08-12T15:15:45.763Z,6.00
2017-08-12T15:18:12.036Z,5.70
2017-08-12T15:20:38.244Z,5.50
2017-08-12T15:23:05.407Z,5.63
2017-08-12T15:25:31.759Z,6.20
2017-08-12T15:27:57.951Z,5.60
2017-08-12T15:30:24.127Z,5.27
2017-08-12T15:32:52.419Z,6.13
2017-08-12T15:35:18.577Z,6.30
2017-08-12T15:37:44.719Z,6.60
2017-08-12T15:40:10.934Z,7.37
2017-08-12T15:42:37.123Z,7.63
2017-08-12T15:45:03.317Z,8.60
2017-08-12T15:47:29.457Z,7.60
2017-08-12T15:49:55.619Z,9.00
2017-08-12T15:52:21.763Z,7.80
2017-08-12T15:54:47.932Z,8.50
2017-08-12T15:57:14.080Z,9.47
2017-08-12T15:59:40.262Z,8.63
2017-08-12T16:02:06.409Z,8.40
2017-08-12T16:04:32.552Z,9.27
2017-08-12T16:06:58.709Z,8.63
2017-08-12T16:09:24.902Z,9.33
2017-08-12T16:11:51.071Z,9.60
2017-08-12T16:14:17.211Z,8.93
2017-08-12T16:16:43.506Z,8.60
2017-08-12T16:19:09.647Z,9.10
2017-08-12T16:21:35.811Z,8.53
2017-08-12T16:24:01.942Z,8.50
2017-08-12T16:26:28.070Z,8.80
2017-08-12T16:28:54.268Z,8.30
2017-08-12T16:31:20.415Z,8.70
2017-08-12T16:33:46.624Z,9.00
2017-08-12T16:36:12.738Z,9.00
2017-08-12T16:38:38.878Z,8.33
2017-08-12T16:41:05.020Z,9.40
2017-08-12T16:43:31.219Z,9.00
2017-08-12T16:45:57.363Z,9.33
2017-08-12T16:48:23.732Z,10.37
2017-08-12T16:50:49.854Z,10.07
2017-08-12T16:53:15.990Z,9.43
2017-08-12T16:55:42.196Z,9.87
2017-08-12T16:58:08.404Z,9.70
2017-08-12T17:00:34.606Z,9.73
2017-08-12T17:03:00.801Z,10.70
2017-08-12T17:05:26.980Z,10.63
2017-08-12T17:07:53.136Z,12.20
2017-08-12T17:10:19.292Z,10.60
2017-08-12T17:12:45.475Z,12.10
2017-08-12T17:15:11.661Z,10.70
2017-08-12T17:17:37.813Z,10.83
2017-08-12T17:20:03.942Z,13.10
2017-08-12T17:22:30.106Z,11.30
2017-08-12T17:24:56.263Z,12.20
2017-08-12T17:27:22.476Z,10.43
2017-08-12T17:29:48.599Z,11.73
2017-08-12T17:32:14.775Z,12.60
2017-08-12T17:34:40.905Z,11.30
2017-08-12T17:37:07.064Z,10.67
2017-08-12T17:39:33.247Z,11.63
2017-08-12T17:41:59.379Z,11.13
2017-08-12T17:44:25.567Z,10.47
2017-08-12T17:46:51.701Z,11.40
2017-08-12T17:49:17.922Z,11.70
2017-08-12T17:51:44.051Z,11.57
2017-08-12T17:54:10.241Z,12.17
2017-08-12T17:56:36.362Z,10.70
2017-08-12T17:59:02.553Z,11.50
2017-08-12T18:01:28.680Z,10.80
2017-08-12T18:03:54.795Z,12.10
2017-08-12T18:06:20.966Z,10.57
2017-08-12T18:08:47.167Z,11.60
2017-08-12T18:11:13.381Z,11.03
2017-08-12T18:13:39.499Z,12.07
2017-08-12T18:16:05.674Z,10.83
2017-08-12T18:18:31.799Z,12.30
2017-08-12T18:20:57.959Z,10.40
2017-08-12T18:23:24.105Z,11.50
2017-08-12T18:25:50.255Z,10.63
2017-08-12T18:28:16.419Z,10.43
2017-08-12T18:30:42.581Z,10.27
2017-08-12T18:33:08.735Z,10.30
2017-08-12T18:35:34.884Z,9.50
2017-08-12T18:38:01.039Z,10.83
2017-08-12T18:40:27.197Z,10.60
2017-08-12T18:42:53.389Z,10.27
2017-08-12T18:45:19.529Z,9.63
2017-08-12T18:47:45.687Z,8.37
2017-08-12T18:50:11.851Z,9.97
2017-08-12T18:52:38.029Z,8.90
2017-08-12T18:55:04.228Z,8.87
2017-08-12T18:57:30.370Z,8.47
2017-08-12T18:59:56.568Z,9.50
2017-08-12T19:02:22.716Z,8.40
2017-08-12T19:04:48.876Z,9.60
2017-08-12T19:07:15.089Z,9.43
2017-08-12T19:09:41.340Z,9.50
2017-08-12T19:12:07.454Z,9.00
2017-08-12T19:14:33.607Z,9.30
2017-08-12T19:16:59.743Z,8.97
2017-08-12T19:19:25.904Z,11.40
2017-08-12T19:21:52.016Z,9.90
2017-08-12T19:24:18.134Z,9.50
2017-08-12T19:26:44.275Z,9.77
2017-08-12T19:29:10.422Z,7.80
2017-08-12T19:31:36.556Z,8.80
2017-08-12T19:34:02.674Z,9.03
2017-08-12T19:36:28.833Z,10.20
2017-08-12T19:38:54.954Z,10.30
2017-08-12T19:41:21.096Z,11.27
2017-08-12T19:43:47.202Z,9.30
2017-08-12T19:46:13.351Z,12.47
2017-08-12T19:48:39.555Z,13.90
2017-08-12T19:51:05.710Z,16.53
2017-08-12T19:53:31.925Z,10.93
2017-08-12T19:55:58.111Z,12.37
2017-08-12T19:58:24.413Z,17.10
2017-08-12T20:00:50.608Z,11.40
2017-08-12T20:03:16.796Z,10.13
2017-08-12T20:05:43.027Z,10.60
2017-08-12T20:08:09.307Z,10.33
2017-08-12T20:10:35.559Z,14.13
2017-08-12T20:13:01.813Z,10.47
2017-08-12T20:15:28.043Z,10.83
2017-08-12T20:17:54.170Z,10.57
2017-08-12T20:20:20.372Z,12.10
2017-08-12T20:22:46.835Z,13.10
2017-08-12T20:25:13.023Z,9.77
2017-08-12T20:27:39.187Z,11.77
2017-08-12T20:30:05.393Z,10.53
2017-08-12T20:32:32.090Z,8.10
2017-08-12T20:34:59.802Z,8.63
2017-08-12T20:37:25.959Z,9.17
2017-08-12T20:39:52.292Z,8.97
2017-08-12T20:42:38.613Z,8.30
2017-08-12T20:45:04.787Z,7.87
2017-08-12T20:47:30.944Z,7.40
2017-08-12T20:49:57.113Z,7.30
2017-08-12T20:52:24.863Z,8.37
2017-08-12T20:54:51.280Z,7.63
2017-08-12T20:57:31.659Z,7.20
2017-08-12T20:59:57.876Z,7.33
2017-08-12T21:02:24.514Z,7.00
2017-08-12T21:04:50.667Z,7.20
2017-08-12T21:07:20.470Z,8.10
2017-08-12T21:09:46.754Z,8.63
2017-08-12T21:12:13.721Z,7.07
2017-08-12T21:14:40.015Z,8.17
2017-08-12T21:17:06.347Z,8.30
2017-08-12T21:19:32.548Z,7.80
2017-08-12T21:21:58.827Z,7.90
2017-08-12T21:24:25.023Z,7.77
2017-08-12T21:26:51.666Z,7.80
2017-08-12T21:29:17.907Z,8.30
2017-08-12T21:31:44.623Z,7.03
2017-08-12T21:34:10.996Z,7.77
2017-08-12T21:36:37.253Z,7.33
2017-08-12T21:39:03.654Z,8.00
2017-08-12T21:41:29.846Z,7.67
2017-08-12T21:43:56.001Z,8.37
2017-08-12T21:46:22.183Z,7.80
2017-08-12T21:48:48.337Z,7.80
2017-08-12T21:51:14.506Z,9.30
2017-08-12T21:53:41.072Z,8.77
2017-08-12T21:56:07.755Z,8.13
2017-08-12T21:58:33.987Z,8.27
2017-08-12T22:01:00.216Z,8.50
2017-08-12T22:03:26.514Z,7.50
2017-08-12T22:05:52.672Z,8.83
2017-08-12T22:08:19.042Z,8.00
2017-08-12T22:10:45.495Z,7.73
2017-08-12T22:13:11.700Z,8.13
2017-08-12T22:15:37.855Z,7.87
2017-08-12T22:18:04.686Z,7.80
2017-08-12T22:20:31.248Z,8.03
2017-08-12T22:22:57.492Z,8.30
2017-08-12T22:25:23.867Z,8.80
2017-08-12T22:27:49.999Z,7.40
2017-08-12T22:30:16.160Z,7.23
2017-08-12T22:32:42.315Z,8.57
2017-08-12T22:35:08.552Z,8.70
2017-08-12T22:37:34.687Z,8.43
2017-08-12T22:40:00.855Z,7.93
2017-08-12T22:42:26.981Z,8.30
2017-08-12T22:44:53.137Z,8.13
2017-08-12T22:47:19.307Z,7.70
2017-08-12T22:49:45.460Z,7.70
2017-08-12T22:52:11.705Z,8.03
2017-08-12T22:54:37.872Z,10.00
2017-08-12T22:57:04.056Z,8.10
2017-08-12T22:59:30.191Z,7.70
2017-08-12T23:01:56.364Z,8.30
2017-08-12T23:04:22.489Z,8.90
2017-08-12T23:06:48.748Z,7.90
2017-08-12T23:09:14.943Z,8.30
2017-08-12T23:11:41.079Z,9.13
2017-08-12T23:14:07.264Z,8.47
2017-08-12T23:16:33.423Z,8.30
2017-08-12T23:18:59.584Z,8.50
2017-08-12T23:21:25.759Z,8.07
2017-08-12T23:23:51.928Z,8.20
2017-08-12T23:26:18.083Z,8.27
2017-08-12T23:28:44.233Z,8.60
2017-08-12T23:31:10.412Z,8.60
2017-08-12T23:33:36.563Z,8.63
2017-08-12T23:36:02.739Z,9.13
2017-08-12T23:38:28.879Z,7.90
2017-08-12T23:40:55.032Z,7.80
2017-08-12T23:43:21.182Z,8.17
2017-08-12T23:45:47.436Z,7.83
2017-08-12T23:48:13.631Z,8.13
2017-08-12T23:50:39.948Z,7.43
2017-08-12T23:53:06.115Z,7.93
2017-08-12T23:55:32.513Z,7.67
2017-08-12T23:57:58.681Z,8.47
